Darstellungsparameter: Aktuell verwendete Einstellungen:
Skalierung der Graphiken ... ?
xyx+y,   Skalierungsfaktor:      Skalierung: Modus: x, Faktor: 1
Darstellungszeitraum ... ?
Vom - - bis: - -   Zeitraum: 09.03.2003 - 09.03.2003
Min/Max/Avg-Anzeige ... ?
Zeige MMA aktuell
Zeige MMA Monat
Zeige MMA alles
Zeige --A aktuell
Zeige --A Monat
Zeige --A alles
Keine MMA-Anzeige
MMA:
Minimum Maximum Average (ber die Originaldaten)
MMA-Basis: 23.02.2003 - 30.09.2000
Quicknavigation für Darstellung... ?
Tage:      1T, 2T, 3T, 5T -1T -2T -3T -5T +1T +2T +3T +5T
Wochen: 1W, 2W, 3W -1W -2W -3W +1W +2W +3W
Monate: 1M, 3M, 6M -1M -3M -6M +1M +3M +6M
Jahre:    1J, 3J, 5J, 10J -1J -3J -5J -10J +1J +3J +5J +10J
Nutze für die Darstellung ... ?
Originaldaten oder Mittelwerte auf ...
Stundenbasis Tagesbasis Wochenbasis
Monatsbasis Jahresbasis      Datenbasis: Original-Daten
Darstellen als:
Statistik (Auto) Statistik J:M      Darstellung:
Zur Graphik,    zurück zur Übersicht aller Sensoren.
 
Tabellarische Datenbersicht: ?
 
Sensor: Nr:Datum:Temp:Abs-Feuchte:Windchill:Wind:
Aussen-T/F 1 09-03-2003 00:05:13 9 C 4.85 g/m*3 9 C 0 km/h
2 09-03-2003 00:17:13 9 C 4.85 g/m*3 9 C 0 km/h
3 09-03-2003 00:29:13 9 C 4.85 g/m*3 9 C 0 km/h
4 09-03-2003 00:41:13 9 C 4.85 g/m*3 9 C 0 km/h
5 09-03-2003 00:53:13 9 C 4.94 g/m*3 9 C 0 km/h
6 09-03-2003 01:05:13 8.2 C 5.28 g/m*3 8.2 C 0 km/h
7 09-03-2003 01:17:13 8 C 5.21 g/m*3 8 C 0 km/h
8 09-03-2003 01:29:13 8.4 C 5.17 g/m*3 8.4 C 0 km/h
9 09-03-2003 01:41:13 8.5 C 5.12 g/m*3 8.5 C 0 km/h
10 09-03-2003 01:53:13 8.6 C 5.16 g/m*3 8.6 C 0 km/h
11 09-03-2003 02:05:13 8.4 C 5.17 g/m*3 8.4 C 0 km/h
12 09-03-2003 02:17:13 8 C 5.37 g/m*3 8 C 0 km/h
13 09-03-2003 02:29:13 7.4 C 5.65 g/m*3 7.4 C 0 km/h
14 09-03-2003 02:41:13 7.4 C 5.57 g/m*3 7.4 C 0 km/h
15 09-03-2003 02:53:13 7.5 C 5.44 g/m*3 7.5 C 0 km/h
16 09-03-2003 03:05:13 7.7 C 5.43 g/m*3 7.7 C 0 km/h
17 09-03-2003 03:17:13 8 C 5.29 g/m*3 8 C 0 km/h
18 09-03-2003 03:29:13 8.1 C 5.24 g/m*3 8.1 C 0 km/h
19 09-03-2003 03:41:13 8 C 5.21 g/m*3 8 C 0 km/h
20 09-03-2003 03:53:13 8.2 C 5.19 g/m*3 8.2 C 0 km/h
21 09-03-2003 04:05:13 8.1 C 5.16 g/m*3 8.1 C 0 km/h
22 09-03-2003 04:17:13 8 C 5.13 g/m*3 8 C 0 km/h
23 09-03-2003 04:29:13 7.9 C 5.17 g/m*3 7.9 C 0 km/h
24 09-03-2003 04:41:13 8 C 5.13 g/m*3 8 C 0 km/h
25 09-03-2003 04:53:13 7.8 C 5.14 g/m*3 7.8 C 0 km/h
Sensor: Nr:Datum:Temp:Abs-Feuchte:Windchill:Wind:
Aussen-T/F 26 09-03-2003 05:05:13 7.8 C 5.14 g/m*3 7.8 C 0 km/h
27 09-03-2003 05:17:13 7.5 C 5.2 g/m*3 7.5 C 0 km/h
28 09-03-2003 05:29:13 7.3 C 5.21 g/m*3 7.3 C 0 km/h
29 09-03-2003 05:41:13 7.4 C 5.17 g/m*3 7.4 C 0 km/h
30 09-03-2003 05:53:13 7 C 5.19 g/m*3 7 C 0 km/h
31 09-03-2003 06:05:13 6.7 C 5.32 g/m*3 6.7 C 0 km/h
32 09-03-2003 06:17:13 6.8 C 5.35 g/m*3 6.8 C 0 km/h
33 09-03-2003 06:29:13 6.9 C 5.39 g/m*3 6.9 C 0 km/h
34 09-03-2003 06:41:13 7 C 5.35 g/m*3 7 C 0 km/h
35 09-03-2003 06:53:13 7 C 5.27 g/m*3 7 C 0 km/h
36 09-03-2003 07:05:13 7 C 5.35 g/m*3 7 C 0 km/h
37 09-03-2003 07:17:13 7 C 5.27 g/m*3 7 C 0 km/h
38 09-03-2003 07:29:13 7 C 5.27 g/m*3 7 C 0 km/h
39 09-03-2003 07:41:13 7.1 C 5.23 g/m*3 7.1 C 0 km/h
40 09-03-2003 07:53:13 7.3 C 5.29 g/m*3 7.3 C 0 km/h
41 09-03-2003 08:05:13 7.4 C 5.25 g/m*3 7.4 C 0 km/h
42 09-03-2003 08:17:13 7.7 C 5.27 g/m*3 7.7 C 0 km/h
43 09-03-2003 08:29:13 7.9 C 5.26 g/m*3 7.9 C 0 km/h
44 09-03-2003 08:41:13 8.1 C 5.16 g/m*3 8.1 C 0 km/h
45 09-03-2003 08:53:13 8.3 C 5.14 g/m*3 8.3 C 0 km/h
46 09-03-2003 09:05:13 8.5 C 5.21 g/m*3 8.5 C 0 km/h
47 09-03-2003 09:17:13 8.5 C 5.21 g/m*3 8.5 C 0 km/h
48 09-03-2003 09:29:13 8.6 C 5.24 g/m*3 8.6 C 0 km/h
49 09-03-2003 09:41:13 8.7 C 5.19 g/m*3 8.7 C 0 km/h
50 09-03-2003 09:53:13 9 C 5.2 g/m*3 9 C 0 km/h
Sensor: Nr:Datum:Temp:Abs-Feuchte:Windchill:Wind:
Aussen-T/F 51 09-03-2003 10:05:13 9.1 C 5.23 g/m*3 9.1 C 0 km/h
52 09-03-2003 10:17:13 9.4 C 5.34 g/m*3 9.4 C 0 km/h
53 09-03-2003 10:29:13 9.5 C 5.28 g/m*3 9.5 C 0 km/h
54 09-03-2003 10:41:13 9.5 C 5.28 g/m*3 9.5 C 0 km/h
55 09-03-2003 10:53:13 9.5 C 5.28 g/m*3 9.5 C 0 km/h
56 09-03-2003 11:05:12 9.5 C 5.28 g/m*3 9.5 C 0 km/h
57 09-03-2003 11:17:12 9.5 C 5.28 g/m*3 9.5 C 0 km/h
58 09-03-2003 11:29:12 9.5 C 5.28 g/m*3 9.5 C 0 km/h
59 09-03-2003 11:41:12 9.5 C 5.28 g/m*3 9.5 C 0 km/h
60 09-03-2003 11:53:12 9.5 C 5.28 g/m*3 9.5 C 0 km/h
61 09-03-2003 12:05:12 9.5 C 5.28 g/m*3 9.5 C 0 km/h
62 09-03-2003 12:17:12 9.5 C 5.28 g/m*3 9.5 C 0 km/h
63 09-03-2003 12:29:12 9.5 C 5.28 g/m*3 9.5 C 0 km/h
64 09-03-2003 12:41:12 9.5 C 5.28 g/m*3 9.5 C 0 km/h
65 09-03-2003 12:53:12 9.5 C 5.28 g/m*3 9.5 C 0 km/h
66 09-03-2003 13:05:12 9.5 C 5.28 g/m*3 9.5 C 0 km/h
67 09-03-2003 13:17:12 9.5 C 5.28 g/m*3 9.5 C 0 km/h
68 09-03-2003 13:29:12 9.5 C 5.28 g/m*3 9.5 C 0 km/h
69 09-03-2003 13:41:12 9.5 C 5.28 g/m*3 9.5 C 0 km/h
70 09-03-2003 13:53:12 9.5 C 5.28 g/m*3 9.5 C 0 km/h
71 09-03-2003 14:05:12 9.5 C 5.28 g/m*3 9.5 C 0 km/h
72 09-03-2003 14:17:12 9.5 C 5.28 g/m*3 9.5 C 0 km/h
73 09-03-2003 14:29:12 9.5 C 5.28 g/m*3 9.5 C 0 km/h
74 09-03-2003 14:41:12 15.5 C 5.02 g/m*3 15.5 C 0 km/h
75 09-03-2003 14:53:12 16.1 C 4.93 g/m*3 16.1 C 0 km/h
Sensor: Nr:Datum:Temp:Abs-Feuchte:Windchill:Wind:
Aussen-T/F 76 09-03-2003 15:05:13 15.8 C 4.85 g/m*3 15.8 C 0 km/h
77 09-03-2003 15:17:13 15.8 C 4.85 g/m*3 15.8 C 0 km/h
78 09-03-2003 15:29:13 15.9 C 5.01 g/m*3 15.9 C 0 km/h
79 09-03-2003 15:41:13 15.9 C 5.01 g/m*3 15.9 C 0 km/h
80 09-03-2003 15:53:13 16.3 C 4.86 g/m*3 16.3 C 0 km/h
81 09-03-2003 16:05:12 17 C 4.77 g/m*3 17 C 0 km/h
82 09-03-2003 16:17:12 17 C 4.77 g/m*3 17 C 0 km/h
83 09-03-2003 16:29:12 17 C 4.77 g/m*3 17 C 0 km/h
84 09-03-2003 19:17:19 12.8 C 5.15 g/m*3 12.8 C 0 km/h
85 09-03-2003 19:25:12 12.8 C 5.15 g/m*3 12.8 C 0 km/h
86 09-03-2003 19:37:12 11.5 C 5.37 g/m*3 11.5 C 0 km/h
87 09-03-2003 19:49:12 12 C 5.22 g/m*3 12 C 0 km/h
88 09-03-2003 20:01:12 13.1 C 5.02 g/m*3 13.1 C 0 km/h
89 09-03-2003 20:13:12 13.2 C 5.05 g/m*3 13.2 C 0 km/h
90 09-03-2003 20:25:12 13.2 C 5.05 g/m*3 13.2 C 0 km/h
91 09-03-2003 20:37:12 13.1 C 5.02 g/m*3 13.1 C 0 km/h
92 09-03-2003 20:49:12 12.8 C 5.15 g/m*3 12.8 C 0 km/h
93 09-03-2003 21:01:12 12.8 C 5.26 g/m*3 12.8 C 0 km/h
94 09-03-2003 21:14:13 12.4 C 5.24 g/m*3 12.4 C 0 km/h
95 09-03-2003 21:26:13 12.2 C 5.29 g/m*3 12.2 C 0 km/h
96 09-03-2003 21:38:13 11.9 C 5.4 g/m*3 11.9 C 0 km/h
97 09-03-2003 21:50:13 11.8 C 5.37 g/m*3 11.8 C 0 km/h
98 09-03-2003 22:02:13 11.5 C 5.37 g/m*3 11.5 C 0 km/h
99 09-03-2003 22:14:13 11.3 C 5.41 g/m*3 11.3 C 0 km/h
100 09-03-2003 22:26:13 11.2 C 5.47 g/m*3 11.2 C 0 km/h
Sensor: Nr:Datum:Temp:Abs-Feuchte:Windchill:Wind:
Aussen-T/F 101 09-03-2003 22:50:13 10.8 C 5.54 g/m*3 10.8 C 0 km/h
102 09-03-2003 23:02:13 10.6 C 5.56 g/m*3 10.6 C 0 km/h
103 09-03-2003 23:14:13 10.5 C 5.63 g/m*3 10.5 C 0 km/h
104 09-03-2003 23:26:13 10.2 C 5.52 g/m*3 10.2 C 0 km/h
105 09-03-2003 23:38:13 9.8 C 5.57 g/m*3 9.8 C 0 km/h
106 09-03-2003 23:50:13 9.4 C 5.52 g/m*3 9.4 C 0 km/h

Legende:
   Min
   Max


Maximal/Minimal-Werte vom 23.02.2003 - 30.09.2000

Sensor Min Max Avg
Temp
(Aussen-T/F)
°C
-- 
°C 0 °C

Die Daten stammen von einer Davis Vantage Pro 2 Wetter-Station und werden unter Linux mit der Software wview2wettercgi und aufbereitet. Alle Angaben erfolgen ohne Gewähr für ihre Vollständigkeit oder Richtigkeit.
Kontakt: Rainer Krienke krienke@uni-koblenz.de . Meine Webseiten an der Uni Koblenz oder privat.
Version: $Revision: 0.78 $